METAR AND TAF INFORMATION
METAR FOR CYYZ
ADDS - METARS form results

(1929 UTC 26 April 2018)
Data provider http://aviationweather.gov/adds/metars/
 
METAR text: CYYZ 261900Z 29008G15KT 15SM FEW035 SCT250 14/01 A2983 RMK CF1CI3 CF TR CONTRAILS SLP107 DENSITY ALT 700FT
Conditions at: CYYZ (TORONTO/PEARSON , ON, CA) observed 1900 UTC 26 April 2018
Temperature: 14.0°C (57°F)
Dewpoint: 1.0°C (34°F) [RH = 41%]
Pressure (altimeter): 29.83 inches Hg (1010.2 mb)
[Sea-level pressure: 1010.7 mb]
Winds: from the WNW (290 degrees) at 9 MPH (8 knots; 4.2 m/s)
gusting to 17 MPH (15 knots; 7.8 m/s)
Visibility: 15 miles (24 km)
Ceiling: at least 12,000 feet AGL
Clouds: few clouds at 3500 feet AGL
scattered clouds at 25000 feet AGL
Weather: no significant weather observed at this time

Forecast for: CYYZ (TORONTO/PEARSON , ON, CA)
Text: TAF CYYZ 261738Z 2618/2724 31012KT P6SM FEW030
Forecast period: 1800 UTC 26 April 2018 to 0100 UTC 27 April 2018
Forecast type: FROM: standard forecast or significant change
Winds: from the NW (310 degrees) at 14 MPH (12 knots; 6.2 m/s)
Visibility: 6 or more miles (10+ km)
Clouds: few clouds at 3000 feet AGL
Weather: no significant weather forecast for this period
Forecast for: CYYZ (TORONTO/PEARSON , ON, CA)
Text: TAF CYYZ 261738Z 2618/2724 31012KT P6SM FEW030
Forecast period: 1800 UTC 26 April 2018 to 0100 UTC 27 April 2018
Forecast type: FROM: standard forecast or significant change
Winds: from the NW (310 degrees) at 14 MPH (12 knots; 6.2 m/s)
Visibility: 6 or more miles (10+ km)
Clouds: few clouds at 3000 feet AGL
Weather: no significant weather forecast for this period
Forecast for: CYYZ (TORONTO/PEARSON , ON, CA)
Text: TAF CYYZ 261738Z 2618/2724 31012KT P6SM FEW030
Forecast period: 0100 to 0300 UTC 27 April 2018
Forecast type: BECOMING: Conditions expected to become as follows by 0300 UTC 27 April 2018
Winds: from the W (270 degrees) at 6 MPH (5 knots; 2.6 m/s)
Visibility: 6 or more miles (10+ km)
Clouds: few clouds at 3000 feet AGL
Weather: no significant weather forecast for this period
Forecast for: CYYZ (TORONTO/PEARSON , ON, CA)
Text: TAF CYYZ 261738Z 2618/2724 31012KT P6SM FEW030
Forecast period: 0100 to 0300 UTC 27 April 2018
Forecast type: BECOMING: Conditions expected to become as follows by 0300 UTC 27 April 2018
Winds: from the W (270 degrees) at 6 MPH (5 knots; 2.6 m/s)
Visibility: 6 or more miles (10+ km)
Clouds: few clouds at 3000 feet AGL
Weather: no significant weather forecast for this period
Forecast for: CYYZ (TORONTO/PEARSON , ON, CA)
Text: TAF CYYZ 261738Z 2618/2724 31012KT P6SM FEW030
Forecast period: 0300 to 1500 UTC 27 April 2018
Forecast type: BECOMING: Conditions expected to become as follows by 0500 UTC 27 April 2018
Winds: variable direction winds at 3 MPH (3 knots; 1.6 m/s)
Visibility: 6 or more miles (10+ km)
Clouds: few clouds at 3000 feet AGL
Weather: no significant weather forecast for this period
Forecast for: CYYZ (TORONTO/PEARSON , ON, CA)
Text: TAF CYYZ 261738Z 2618/2724 31012KT P6SM FEW030
Forecast period: 0300 to 1500 UTC 27 April 2018
Forecast type: BECOMING: Conditions expected to become as follows by 0500 UTC 27 April 2018
Winds: variable direction winds at 3 MPH (3 knots; 1.6 m/s)
Visibility: 6 or more miles (10+ km)
Clouds: few clouds at 3000 feet AGL
Weather: no significant weather forecast for this period
Forecast for: CYYZ (TORONTO/PEARSON , ON, CA)
Text: TAF CYYZ 261738Z 2618/2724 31012KT P6SM FEW030
Forecast period: 1500 to 2300 UTC 27 April 2018
Forecast type: FROM: standard forecast or significant change
Winds: from the SE (140 degrees) at 9 MPH (8 knots; 4.2 m/s)
Visibility: 6 or more miles (10+ km)
Clouds: scattered clouds at 18000 feet AGL
Weather: no significant weather forecast for this period
Forecast for: CYYZ (TORONTO/PEARSON , ON, CA)
Text: TAF CYYZ 261738Z 2618/2724 31012KT P6SM FEW030
Forecast period: 1500 to 2300 UTC 27 April 2018
Forecast type: FROM: standard forecast or significant change
Winds: from the SE (140 degrees) at 9 MPH (8 knots; 4.2 m/s)
Visibility: 6 or more miles (10+ km)
Clouds: scattered clouds at 18000 feet AGL
Weather: no significant weather forecast for this period
Forecast for: CYYZ (TORONTO/PEARSON , ON, CA)
Text: TAF CYYZ 261738Z 2618/2724 31012KT P6SM FEW030
Forecast period: 2300 UTC 27 April 2018 to 0000 UTC 28 April 2018
Forecast type: FROM: standard forecast or significant change
Winds: from the ENE (60 degrees) at 6 MPH (5 knots; 2.6 m/s)
Visibility: 6 or more miles (10+ km)
Ceiling: 15000 feet AGL
Clouds: few clouds at 6000 feet AGL
broken clouds at 15000 feet AGL
Weather: no significant weather forecast for this period
Forecast for: CYYZ (TORONTO/PEARSON , ON, CA)
Text: TAF CYYZ 261738Z 2618/2724 31012KT P6SM FEW030
Forecast period: 2300 UTC 27 April 2018 to 0000 UTC 28 April 2018
Forecast type: FROM: standard forecast or significant change
Winds: from the ENE (60 degrees) at 6 MPH (5 knots; 2.6 m/s)
Visibility: 6 or more miles (10+ km)
Ceiling: 15000 feet AGL
Clouds: few clouds at 6000 feet AGL
broken clouds at 15000 feet AGL
Weather: no significant weather forecast for this period

 AIRPORT MAP

 RUNWAY INFORMATION
Runway 05 Runway length 11120 ft Runway width 200 ft
Runway elevation 564 ft Runway displaced threshold 135 ft Runway heading 47
Runway 23 Runway length 11120 ft Runway width 200 ft
Runway elevation 560 ft Runway displaced threshold 485 ft Runway heading 227
Runway 06L Runway length 9697 ft Runway width 200 ft
Runway elevation 529 ft Runway displaced threshold 0 ft Runway heading 47
Runway 24R Runway length 9697 ft Runway width 200 ft
Runway elevation 546 ft Runway displaced threshold 197 ft Runway heading 227
Runway 06R Runway length 9000 ft Runway width 200 ft
Runway elevation 525 ft Runway displaced threshold 0 ft Runway heading 47
Runway 24L Runway length 9000 ft Runway width 200 ft
Runway elevation 547 ft Runway displaced threshold 0 ft Runway heading 227
Runway 15L Runway length 11050 ft Runway width 200 ft
Runway elevation 557 ft Runway displaced threshold 0 ft Runway heading 137
Runway 33R Runway length 11050 ft Runway width 200 ft
Runway elevation 544 ft Runway displaced threshold 0 ft Runway heading 317
Runway 15R Runway length 9088 ft Runway width 200 ft
Runway elevation 551 ft Runway displaced threshold 588 ft Runway heading 137
Runway 33L Runway length 9088 ft Runway width 200 ft
Runway elevation 544 ft Runway displaced threshold 588 ft Runway heading 317

 AIRPORT FREQUENCIES
Type ARR Name APP Frequency 124.475 MHZ
Type ATIS Name ATIS Frequency 112.15 MHZ
Type CLD Name CLNC DEL Frequency 121.3 MHZ
Type DEP Name DEP Frequency 127.575 MHZ
Type GND Name GND Frequency 118 MHZ
Type RCO Name LONDON RDO Frequency 123.275 MHZ
Type RMP Name APN ADVSY Frequency 122.075 MHZ
Type TWR Name TWR Frequency 118.35 MHZ
Type VFR ADV Name Toronto Ce Frequency 119.3 MHZ

 AIRPORT NEAR NAVIGATION AIDS
Type DME Name Toronto Frequency 109100 KHZ
Type DME Name Toronto Frequency 109300 KHZ
Type DME Name Toronto Frequency 110950 KHZ
Type VOR-DME Name Pearson Frequency 116550 KHZ
Type VOR-DME Name Toronto Frequency 112150 KHZ
Type NDB Name Rexdale Frequency 385 KHZ
Type NDB Name Britannia Frequency 236 KHZ
Type NDB Name Meadowvale Frequency 341 KHZ
Type NDB Name Woodhill Frequency 403 KHZ
Type NDB Name Queensway Frequency 368 KHZ



v2.6.1